Terminal Aerodrome Forecast
Issued by NWS

Home | Current Version | Previous Version | Text Only | Print | Product List | Glossary On
Versions: 1 2 3 4 5 6 7 8 9 10 11 12 13 14 15 16 17 18 19
289
FTUS43 KSGF 201120
TAFJLN
TAF
KJLN 201120Z 2012/2112 20012KT P6SM SCT250 WS020/24045KT
     FM201400 21015G22KT P6SM FEW250
     FM202100 23011KT P6SM FEW250
     FM210300 07005KT P6SM SCT050 BKN150=

USA.gov is the U.S. government's official web portal to all federal, state and local government web resources and services.